Archival Weather

Chicago O'Hare International

Chicago, Illinois (KORD)

Report from: Friday, March 30, 2012 4:51 PM CDT
Current time: Monday, June 17, 2024 5:20 AM CDT

Current weather – Weather history – Daily summaries
Weather forecast

Present weatherHaze
Temperature7.2°C (45.0°F)
Wind chill4.3°C (39.7°F)
Dew point3.9°C (39.0°F)
Winds 9 kts (4.6 m/s, 10.4 mph) North-Northeast (30°)
Visibility5 mi. (8 km)
Clouds Ceiling: Overcast 1,100 ft. (335 m)
Altimeter29.82 in.Hg (1010 mB)
Relative humidity80 %
Density altitude-705 ft. (-215 m)
Sea-level pressure101.0 kPa (1010 mB, 29.82 in.Hg)
Remarks Automated weather observing station with precipitation discriminator
Flight conditions Marginal Visual Meteorological Conditions
Raw data2012-03-30 21:51 KORD 302151Z 03009KT 5SM HZ OVC011 07/04 A2982 RMK AO2 SLP099 T00720039
An error has occurred. This application may no longer respond until reloaded. Reload 🗙